Time;durP1;ratioP1;P1;durP2;ratioP2;P2;SDS_P1;SDS_P2;PMS_P1;PMS_P2;Temp;Humidity;BMP_temperature;BMP_pressure;BME280_temperature;BME280_humidity;BME280_pressure;Samples;Min_cycle;Max_cycle;Signal;HPM_P1;HPM_P2
2021/03/30 00:02:58;;;;;;;30.13;17.40;;;256.90;2073.60;;;;;;4919914;29;20032;-83
2021/03/30 00:05:29;;;;;;;31.48;18.02;;;256.90;2073.60;;;;;;4919763;29;20070;-83
2021/03/30 00:08:19;;;;;;;31.58;19.38;;;256.60;2099.20;;;;;;4906419;29;20040;-84
2021/03/30 00:11:12;;;;;;;34.33;18.13;;;256.80;2099.20;;;;;;4900795;29;20044;-82
2021/03/30 00:14:42;;;;;;;34.00;18.20;;;256.90;2099.20;;;;;;4917286;29;20234;-86
2021/03/30 00:18:11;;;;;;;;;;;;;;;;;;;;;
2021/03/30 00:21:56;;;;;;;26.83;15.50;;;281.60;2150.40;;;;;;4922912;28;20082;-83
2021/03/30 00:25:15;;;;;;;;;;;;;;;;;;;;;
2021/03/30 00:28:35;;;;;;;26.67;13.70;;;256.90;2099.20;;;;;;5007796;28;20042;-81
2021/03/30 00:31:12;;;;;;;32.33;17.23;;;256.90;2201.60;;;;;;4994241;28;20022;-81
2021/03/30 00:33:43;;;;;;;24.20;13.55;;;256.60;2176.00;;;;;;5017342;28;20026;-81
2021/03/30 00:36:10;;;;;;;22.27;11.75;;;256.40;2176.00;;;;;;4999073;28;20409;-80
2021/03/30 00:39:18;;;;;;;25.58;10.93;;;256.40;2176.00;;;;;;4976059;28;20070;-85
2021/03/30 00:42:26;;;;;;;22.98;13.55;;;256.30;2176.00;;;;;;4903140;29;20063;-84
2021/03/30 00:45:01;;;;;;;26.48;14.73;;;256.50;2201.60;;;;;;4936352;29;20106;-84
2021/03/30 00:51:05;;;;;;;22.90;12.55;;;256.50;2227.20;;;;;;4788905;30;20054;-82
2021/03/30 00:53:44;;;;;;;22.27;11.50;;;256.50;2201.60;;;;;;4816638;29;20040;-83
2021/03/30 00:56:16;;;;;;;21.00;11.98;;;256.60;2227.20;;;;;;4952489;28;20083;-80
2021/03/30 00:59:31;;;;;;;20.88;13.43;;;256.60;2176.00;;;;;;4940490;29;20467;-81
2021/03/30 01:03:31;;;;;;;19.50;11.75;;;256.40;2201.60;;;;;;4869312;29;20432;-80
2021/03/30 01:06:24;;;;;;;22.63;11.55;;;256.20;2227.20;;;;;;4822956;29;20041;-82
2021/03/30 01:10:13;;;;;;;25.80;11.80;;;256.20;2252.80;;;;;;4886428;29;20044;-82
2021/03/30 01:13:38;;;;;;;;;;;;;;;;;;;;;
2021/03/30 01:16:21;;;;;;;22.88;14.23;;;256.20;2252.80;;;;;;4936593;29;20038;-83
2021/03/30 01:19:29;;;;;;;22.27;12.90;;;256.10;2227.20;;;;;;4936519;29;20051;-84
2021/03/30 01:22:24;;;;;;;23.80;12.75;;;256.10;2176.00;;;;;;4933210;29;20036;-85
2021/03/30 01:24:54;;;;;;;26.02;12.73;;;256.00;2227.20;;;;;;4901640;29;20036;-81
2021/03/30 01:27:37;;;;;;;33.28;16.35;;;256.10;2252.80;;;;;;4916462;29;20024;-79
2021/03/30 01:30:07;;;;;;;37.50;22.73;;;256.20;2252.80;;;;;;4917706;29;20032;-81
2021/03/30 01:32:59;;;;;;;39.25;21.58;;;256.10;2252.80;;;;;;4916666;29;20055;-85
2021/03/30 01:35:28;;;;;;;41.20;22.27;;;256.20;2252.80;;;;;;4899519;29;20047;-80
2021/03/30 01:38:17;;;;;;;37.00;17.17;;;256.20;2227.20;;;;;;4917210;29;20378;-83
2021/03/30 01:40:49;;;;;;;28.13;14.57;;;256.20;2124.80;;;;;;4916968;29;20036;-84
2021/03/30 01:43:19;;;;;;;21.23;12.90;;;256.40;1996.80;;;;;;4917306;29;20044;-81
2021/03/30 01:45:56;;;;;;;20.08;11.55;;;256.50;1996.80;;;;;;4916968;29;20058;-81
2021/03/30 01:48:27;;;;;;;24.73;13.68;;;256.50;1945.60;;;;;;4944644;28;20082;-82
2021/03/30 01:50:55;;;;;;;22.83;11.90;;;256.60;1945.60;;;;;;4977580;28;20038;-83
2021/03/30 01:53:24;;;;;;;22.13;11.63;;;256.70;1945.60;;;;;;4995626;28;20109;-84
2021/03/30 01:55:54;;;;;;;20.27;12.07;;;256.70;1920.00;;;;;;4995842;28;20026;-84
2021/03/30 01:58:23;;;;;;;22.27;12.75;;;256.80;1920.00;;;;;;4962392;28;20065;-84
2021/03/30 02:01:31;;;;;;;25.23;13.02;;;256.70;1971.20;;;;;;4962037;28;20134;-84
2021/03/30 02:04:18;;;;;;;32.70;17.65;;;256.60;2022.40;;;;;;4942890;28;20068;-82
2021/03/30 02:07:08;;;;;;;41.33;23.10;;;256.30;2099.20;;;;;;4995428;28;20082;-82
2021/03/30 02:10:17;;;;;;;35.83;20.15;;;256.20;2176.00;;;;;;4995639;28;20038;-84
2021/03/30 02:13:42;;;;;;;42.38;20.27;;;256.10;2227.20;;;;;;4989801;28;20112;-82
2021/03/30 02:16:57;;;;;;;42.03;21.83;;;256.10;2176.00;;;;;;4994468;28;20019;-85
2021/03/30 02:20:37;;;;;;;34.20;21.38;;;256.10;2227.20;;;;;;4993509;28;20038;-80
2021/03/30 02:23:27;;;;;;;31.25;19.23;;;231.20;2252.80;;;;;;4979676;28;20037;-85
2021/03/30 02:26:28;;;;;;;37.70;21.00;;;256.00;2252.80;;;;;;4994878;28;20445;-83
2021/03/30 02:29:18;;;;;;;36.45;20.60;;;256.00;2252.80;;;;;;4981239;28;20031;-83
2021/03/30 02:32:04;;;;;;;38.28;21.92;;;256.00;2252.80;;;;;;4995240;28;20022;-81
2021/03/30 02:34:37;;;;;;;30.85;18.88;;;231.30;2252.80;;;;;;4973116;28;20031;-84
2021/03/30 02:37:33;;;;;;;30.67;16.08;;;231.30;2252.80;;;;;;4975008;28;20026;-84
2021/03/30 02:40:51;;;;;;;24.92;14.73;;;230.90;2252.80;;;;;;4993869;28;20077;-85
2021/03/30 02:44:24;;;;;;;31.95;17.27;;;231.00;2252.80;;;;;;4954351;29;20383;-83
2021/03/30 02:47:33;;;;;;;31.80;18.77;;;230.90;2252.80;;;;;;4987648;28;20105;-85
2021/03/30 02:51:08;;;;;;;28.60;18.27;;;230.70;2252.80;;;;;;4988913;28;20043;-81
2021/03/30 02:54:05;;;;;;;27.02;16.70;;;230.80;2252.80;;;;;;4988192;28;20042;-81
2021/03/30 02:56:46;;;;;;;27.40;16.95;;;230.70;2252.80;;;;;;4928454;28;20086;-83
2021/03/30 03:00:17;;;;;;;28.85;16.65;;;230.80;2252.80;;;;;;4953272;28;20113;-85
2021/03/30 03:03:33;;;;;;;25.60;16.25;;;230.80;2252.80;;;;;;4976701;28;20039;-84
2021/03/30 03:06:44;;;;;;;21.52;13.80;;;230.90;2252.80;;;;;;4935000;29;20028;-81
2021/03/30 03:10:02;;;;;;;22.20;11.88;;;230.90;2252.80;;;;;;4852053;29;20040;-82
2021/03/30 03:13:31;;;;;;;19.80;10.48;;;230.90;2252.80;;;;;;4915718;29;20071;-79
2021/03/30 03:16:45;;;;;;;17.38;9.98;;;230.80;2252.80;;;;;;4859500;29;20026;-82
2021/03/30 03:20:03;;;;;;;19.25;10.35;;;230.80;2252.80;;;;;;4860973;29;20072;-81
2021/03/30 03:23:00;;;;;;;21.98;12.45;;;230.70;2252.80;;;;;;4868481;29;20159;-84
2021/03/30 03:26:30;;;;;;;19.70;11.73;;;230.80;2252.80;;;;;;4822964;29;20507;-83
2021/03/30 03:29:49;;;;;;;16.42;10.20;;;230.60;2252.80;;;;;;4820170;29;20045;-84
2021/03/30 03:32:54;;;;;;;20.23;12.23;;;230.60;2252.80;;;;;;4878120;29;20033;-83
2021/03/30 03:36:33;;;;;;;42.63;21.75;;;230.50;2252.80;;;;;;4804592;29;20031;-85
2021/03/30 03:39:52;;;;;;;36.83;21.70;;;230.50;2252.80;;;;;;4768631;30;20043;-82
2021/03/30 03:46:46;;;;;;;42.97;24.92;;;230.40;2252.80;;;;;;4748923;30;20046;-85
2021/03/30 03:53:34;;;;;;;47.15;26.23;;;230.50;2252.80;;;;;;4816556;29;20049;-84
2021/03/30 03:56:37;;;;;;;33.42;18.27;;;230.50;2252.80;;;;;;4820829;29;20082;-84
2021/03/30 04:00:01;;;;;;;27.63;17.33;;;230.40;2252.80;;;;;;4818430;29;20050;-84
2021/03/30 04:03:26;;;;;;;32.53;18.95;;;230.40;2252.80;;;;;;4822306;29;20606;-84
2021/03/30 04:06:39;;;;;;;43.95;25.92;;;205.70;2252.80;;;;;;4825069;29;20049;-85
2021/03/30 04:09:56;;;;;;;318.25;171.02;;;205.60;2252.80;;;;;;4822405;29;20039;-86
2021/03/30 04:16:25;;;;;;;112.25;62.67;;;230.40;2252.80;;;;;;4763683;30;20086;-85
2021/03/30 04:19:06;;;;;;;83.57;48.15;;;205.40;2252.80;;;;;;4749462;30;20076;-82
2021/03/30 04:22:42;;;;;;;50.67;30.88;;;205.50;2252.80;;;;;;4785998;30;20122;-84
2021/03/30 04:25:24;;;;;;;79.55;45.42;;;205.50;2252.80;;;;;;4753362;30;20044;-85
2021/03/30 04:28:20;;;;;;;81.38;51.30;;;205.30;2252.80;;;;;;4767772;30;20044;-85
2021/03/30 04:31:01;;;;;;;91.30;54.42;;;205.30;2252.80;;;;;;4789671;29;20046;-84
2021/03/30 04:36:50;;;;;;;104.43;61.63;;;205.60;2252.80;;;;;;4841007;29;20525;-85
2021/03/30 04:39:41;;;;;;;122.10;71.32;;;205.20;2252.80;;;;;;4843589;29;20069;-85
2021/03/30 04:42:14;;;;;;;118.85;73.60;;;205.20;2252.80;;;;;;4828897;29;20099;-84
2021/03/30 04:44:56;;;;;;;133.82;83.18;;;205.40;2252.80;;;;;;4844236;29;20066;-84
2021/03/30 04:48:12;;;;;;;115.53;68.03;;;205.50;2252.80;;;;;;4859112;29;20069;-84
2021/03/30 04:51:09;;;;;;;127.93;73.68;;;205.40;2252.80;;;;;;4824991;29;20037;-86
2021/03/30 04:54:02;;;;;;;76.63;48.05;;;205.50;2252.80;;;;;;4883045;29;20055;-86
2021/03/30 04:57:12;;;;;;;59.28;39.05;;;205.40;2252.80;;;;;;4858439;29;20375;-83
2021/03/30 04:59:49;;;;;;;74.53;47.38;;;205.40;2252.80;;;;;;4919701;29;20534;-86
2021/03/30 05:03:16;;;;;;;72.75;44.88;;;205.50;2252.80;;;;;;4956314;29;20032;-83
2021/03/30 05:06:03;;;;;;;55.80;32.17;;;205.40;2252.80;;;;;;4975048;28;20043;-84
2021/03/30 05:08:54;;;;;;;81.20;44.65;;;205.10;2252.80;;;;;;4976097;28;20046;-86
2021/03/30 05:12:31;;;;;;;83.22;53.33;;;205.20;2252.80;;;;;;4918511;29;20125;-86
2021/03/30 05:15:22;;;;;;;65.03;36.38;;;205.30;2252.80;;;;;;4861255;29;20045;-86
2021/03/30 05:18:00;;;;;;;66.55;37.25;;;205.40;2252.80;;;;;;4861661;29;20102;-85
2021/03/30 05:20:34;;;;;;;65.10;37.60;;;205.50;2252.80;;;;;;4846504;29;20041;-84
2021/03/30 05:24:03;;;;;;;68.93;42.00;;;205.00;2252.80;;;;;;4844042;29;20045;-86
2021/03/30 05:26:55;;;;;;;76.20;39.92;;;205.30;2252.80;;;;;;4846536;29;20133;-87
2021/03/30 05:29:56;;;;;;;64.95;38.67;;;205.50;2252.80;;;;;;4803569;29;20046;-87
2021/03/30 05:33:00;;;;;;;79.57;42.60;;;205.60;2252.80;;;;;;4756621;30;20059;-87
2021/03/30 05:36:16;;;;;;;77.72;41.95;;;205.40;2252.80;;;;;;4700143;30;20119;-86
2021/03/30 05:39:56;;;;;;;58.45;29.70;;;205.40;2252.80;;;;;;4682999;30;20061;-87
2021/03/30 05:43:21;;;;;;;97.53;50.22;;;205.40;2252.80;;;;;;4634819;30;20087;-86
2021/03/30 05:46:06;;;;;;;83.90;40.40;;;205.30;2252.80;;;;;;4616843;30;20139;-87
2021/03/30 05:49:19;;;;;;;65.85;35.85;;;205.50;2252.80;;;;;;4604090;31;20134;-85
2021/03/30 05:52:38;;;;;;;91.70;47.65;;;205.50;2252.80;;;;;;4631937;30;20114;-86
2021/03/30 05:55:33;;;;;;;99.40;52.67;;;205.30;2252.80;;;;;;4654632;30;20038;-86
2021/03/30 05:58:29;;;;;;;111.32;59.35;;;205.50;2252.80;;;;;;4706902;30;20566;-84
2021/03/30 06:01:26;;;;;;;97.43;53.05;;;205.60;2252.80;;;;;;4697556;30;21007;-87
2021/03/30 06:04:21;;;;;;;123.60;57.72;;;205.70;2252.80;;;;;;4697570;30;20034;-86
2021/03/30 06:07:18;;;;;;;94.88;52.38;;;205.60;2252.80;;;;;;4747929;30;20102;-87
2021/03/30 06:10:55;;;;;;;217.02;126.93;;;230.40;2252.80;;;;;;4734756;30;20041;-86
2021/03/30 06:14:41;;;;;;;167.93;87.00;;;205.70;2252.80;;;;;;4717402;30;20124;-87
2021/03/30 06:18:23;;;;;;;71.78;39.92;;;230.40;2252.80;;;;;;4699705;30;20033;-86
2021/03/30 06:22:06;;;;;;;66.28;40.80;;;230.50;2252.80;;;;;;4699574;30;20506;-86
2021/03/30 06:25:36;;;;;;;53.67;32.58;;;230.60;2252.80;;;;;;4665123;30;20121;-87
2021/03/30 06:28:55;;;;;;;55.97;34.80;;;230.60;2252.80;;;;;;4665360;30;20046;-86
2021/03/30 06:32:12;;;;;;;45.47;33.00;;;230.50;2252.80;;;;;;4617095;31;20043;-86
2021/03/30 06:35:11;;;;;;;72.38;51.10;;;230.60;2252.80;;;;;;4591609;31;20124;-85
2021/03/30 06:37:58;;;;;;;64.55;41.92;;;230.60;2252.80;;;;;;4565592;31;20408;-85
2021/03/30 06:41:03;;;;;;;56.50;38.05;;;230.70;2252.80;;;;;;4572056;31;20454;-85
2021/03/30 06:46:25;;;;;;;;;;;231.00;2252.80;;;;;;4597555;31;20044;-86
2021/03/30 06:48:54;;;;;;;48.13;34.13;;;230.90;2252.80;;;;;;4649315;30;19923;-83
2021/03/30 06:51:22;;;;;;;51.53;35.85;;;231.00;2252.80;;;;;;4689708;30;20524;-80
2021/03/30 06:53:48;;;;;;;56.63;38.42;;;230.90;2252.80;;;;;;4666800;30;20045;-76
2021/03/30 06:56:13;;;;;;;52.70;33.47;;;231.10;2252.80;;;;;;4712707;30;20094;-74
2021/03/30 06:58:59;;;;;;;54.75;34.35;;;231.20;2252.80;;;;;;4745602;30;20108;-74
2021/03/30 07:01:27;;;;;;;45.42;31.05;;;256.10;2252.80;;;;;;4777309;29;20183;-75
2021/03/30 07:03:57;;;;;;;54.03;31.35;;;256.30;2252.80;;;;;;4815660;29;20390;-74
2021/03/30 07:06:24;;;;;;;47.90;32.40;;;256.40;2252.80;;;;;;4875181;29;20076;-75
2021/03/30 07:08:50;;;;;;;56.83;35.25;;;256.50;2252.80;;;;;;4880978;29;20504;-75
2021/03/30 07:11:17;;;;;;;46.90;30.63;;;256.60;2252.80;;;;;;4881114;29;20096;-76
2021/03/30 07:13:43;;;;;;;37.47;24.10;;;256.80;2252.80;;;;;;4896497;29;20052;-76
2021/03/30 07:16:27;;;;;;;73.25;51.28;;;281.60;2278.40;;;;;;4881173;29;20177;-86
2021/03/30 07:19:00;;;;;;;56.35;37.42;;;281.70;2278.40;;;;;;4895890;29;20120;-85
2021/03/30 07:21:53;;;;;;;47.85;26.05;;;281.90;2278.40;;;;;;4884182;29;20516;-86
2021/03/30 07:24:40;;;;;;;48.42;32.33;;;282.00;2201.60;;;;;;4926801;28;20081;-85
2021/03/30 07:30:46;;;;;;;44.58;28.38;;;282.50;2176.00;;;;;;4861703;29;20069;-86
2021/03/30 07:33:41;;;;;;;40.15;24.55;;;307.30;2304.00;;;;;;4902786;28;20047;-85
2021/03/30 07:36:14;;;;;;;39.67;20.80;;;307.50;2278.40;;;;;;5013774;28;20026;-85
2021/03/30 07:38:48;;;;;;;36.67;22.15;;;307.60;2201.60;;;;;;4996509;28;20018;-86
2021/03/30 07:41:19;;;;;;;37.00;20.98;;;307.70;2150.40;;;;;;4996512;28;20022;-86
2021/03/30 07:43:50;;;;;;;28.77;20.48;;;307.80;2150.40;;;;;;4996389;28;20508;-86
2021/03/30 07:46:17;;;;;;;40.78;23.65;;;307.80;2022.40;;;;;;4996609;28;20029;-86
2021/03/30 07:48:44;;;;;;;27.88;16.88;;;308.00;2073.60;;;;;;4996235;28;20483;-86
2021/03/30 07:51:21;;;;;;;45.55;26.52;;;333.10;2099.20;;;;;;4996414;28;20061;-84
2021/03/30 07:54:16;;;;;;;32.50;19.90;;;332.80;1996.80;;;;;;4996424;28;20117;-85
2021/03/30 07:56:44;;;;;;;29.58;15.23;;;333.00;1971.20;;;;;;4996015;28;20117;-87
2021/03/30 08:00:05;;;;;;;19.58;11.48;;;333.00;1843.20;;;;;;4996180;28;20174;-86
2021/03/30 08:06:39;;;;;;;13.45;7.15;;;333.30;1638.40;;;;;;4959705;28;20523;-85
2021/03/30 08:09:25;;;;;;;20.08;11.15;;;333.50;1561.60;;;;;;5011720;28;20561;-86
2021/03/30 08:11:56;;;;;;;15.45;9.70;;;333.70;1587.20;;;;;;5013691;28;20022;-85
2021/03/30 08:14:38;;;;;;;21.25;11.75;;;333.70;1561.60;;;;;;4999494;28;20415;-85
2021/03/30 08:17:20;;;;;;;14.47;8.63;;;358.60;1561.60;;;;;;4999755;28;20508;-85
2021/03/30 08:20:03;;;;;;;17.05;7.55;;;358.60;1510.40;;;;;;5001407;28;20030;-85
2021/03/30 08:22:45;;;;;;;16.33;7.53;;;358.70;1510.40;;;;;;5001150;28;20038;-85
2021/03/30 08:28:56;;;;;;;16.63;8.95;;;359.00;1510.40;;;;;;4957268;29;20046;-86
2021/03/30 08:31:55;;;;;;;14.77;9.65;;;359.10;1484.80;;;;;;4977467;28;20049;-85
2021/03/30 08:34:27;;;;;;;14.98;7.95;;;359.30;1510.40;;;;;;5017232;28;20045;-85
2021/03/30 08:36:58;;;;;;;10.85;5.78;;;359.30;1433.60;;;;;;4999935;28;20113;-86
2021/03/30 08:39:24;;;;;;;9.68;6.10;;;359.20;1408.00;;;;;;4999586;28;20034;-85
2021/03/30 08:42:12;;;;;;;14.23;7.63;;;359.10;1459.20;;;;;;5017083;28;20026;-85
2021/03/30 08:45:03;;;;;;;18.27;8.98;;;359.20;1433.60;;;;;;4999441;28;20037;-86
2021/03/30 08:47:50;;;;;;;21.95;12.68;;;359.10;1433.60;;;;;;5000028;28;20022;-86
2021/03/30 08:50:28;;;;;;;23.55;14.93;;;359.20;1459.20;;;;;;5016934;28;20057;-85
2021/03/30 08:52:56;;;;;;;22.15;17.17;;;359.20;1433.60;;;;;;4998787;28;20022;-85
2021/03/30 08:55:29;;;;;;;7.60;5.20;;;359.20;1433.60;;;;;;4999293;28;20026;-85
2021/03/30 08:57:59;;;;;;;10.98;6.00;;;359.20;1382.40;;;;;;5000311;28;20022;-85
2021/03/30 09:00:26;;;;;;;10.52;6.38;;;359.10;1459.20;;;;;;4999051;28;20354;-85
2021/03/30 09:03:06;;;;;;;17.38;7.03;;;359.20;1433.60;;;;;;5016747;28;20026;-85
2021/03/30 09:05:43;;;;;;;11.00;6.90;;;359.30;1459.20;;;;;;4999588;28;20405;-85
2021/03/30 09:08:11;;;;;;;9.68;5.78;;;359.30;1408.00;;;;;;4998518;28;20046;-84
2021/03/30 09:10:37;;;;;;;10.23;6.47;;;359.30;1408.00;;;;;;5017313;28;20450;-87
2021/03/30 09:13:14;;;;;;;11.73;7.00;;;359.00;1408.00;;;;;;4998830;28;20032;-86
2021/03/30 09:15:41;;;;;;;22.75;13.82;;;384.00;1408.00;;;;;;4999705;28;20137;-84
2021/03/30 09:18:09;;;;;;;11.88;6.72;;;384.10;1408.00;;;;;;4999215;28;20034;-85
2021/03/30 09:20:36;;;;;;;11.98;6.63;;;384.00;1408.00;;;;;;4998635;28;20026;-85
2021/03/30 09:23:14;;;;;;;18.55;10.93;;;384.10;1408.00;;;;;;4998976;28;20026;-85
2021/03/30 09:25:43;;;;;;;13.02;6.18;;;384.20;1382.40;;;;;;4997746;28;20121;-84
2021/03/30 09:28:24;;;;;;;13.10;7.53;;;384.50;1382.40;;;;;;4998737;28;20045;-85
2021/03/30 09:30:50;;;;;;;13.18;7.20;;;384.60;1356.80;;;;;;5015924;28;20018;-84
2021/03/30 09:33:17;;;;;;;10.60;6.55;;;384.60;1408.00;;;;;;4998598;28;20029;-85
2021/03/30 09:35:43;;;;;;;15.07;7.55;;;384.40;1356.80;;;;;;4998566;28;20026;-85
2021/03/30 09:38:09;;;;;;;8.70;5.78;;;384.70;1382.40;;;;;;4998391;28;20030;-85
2021/03/30 09:40:40;;;;;;;12.57;6.15;;;384.90;1331.20;;;;;;4997654;28;20032;-85
2021/03/30 09:43:11;;;;;;;9.05;6.10;;;409.70;1382.40;;;;;;4997914;28;20452;-82
2021/03/30 09:45:38;;;;;;;11.45;5.38;;;409.90;1356.80;;;;;;4998681;28;20078;-83
2021/03/30 09:48:07;;;;;;;12.73;5.85;;;410.20;1331.20;;;;;;4996352;28;20034;-83
2021/03/30 09:50:33;;;;;;;8.75;5.60;;;410.30;1331.20;;;;;;4995492;28;20018;-79
2021/03/30 09:53:05;;;;;;;11.63;5.97;;;410.40;1331.20;;;;;;5014503;28;20029;-80
2021/03/30 09:55:35;;;;;;;16.73;7.93;;;410.30;1280.00;;;;;;4995232;28;20362;-79
2021/03/30 09:58:08;;;;;;;16.13;6.57;;;410.40;1280.00;;;;;;4997252;28;20433;-79
2021/03/30 10:00:40;;;;;;;11.63;6.28;;;410.50;1305.60;;;;;;4997571;28;20095;-80
2021/03/30 10:03:07;;;;;;;9.55;5.72;;;410.30;1280.00;;;;;;4997643;28;20363;-83
2021/03/30 10:05:39;;;;;;;11.52;6.35;;;410.50;1280.00;;;;;;4997762;28;20033;-83
2021/03/30 10:08:16;;;;;;;14.20;5.97;;;435.20;1305.60;;;;;;5014256;28;20061;-83
2021/03/30 10:10:48;;;;;;;9.40;4.93;;;435.40;1280.00;;;;;;4997932;28;20037;-80
2021/03/30 10:13:29;;;;;;;9.00;4.70;;;435.60;1254.40;;;;;;4995077;28;20484;-82
2021/03/30 10:15:58;;;;;;;11.98;6.38;;;435.90;1254.40;;;;;;4997798;28;20037;-79
2021/03/30 10:18:28;;;;;;;7.72;4.40;;;436.10;1228.80;;;;;;4996809;28;20117;-81
2021/03/30 10:21:13;;;;;;;8.57;5.07;;;436.00;1177.60;;;;;;4997730;28;20022;-81
2021/03/30 10:23:43;;;;;;;21.70;11.70;;;435.80;1177.60;;;;;;5015943;28;20453;-83
2021/03/30 10:26:25;;;;;;;12.50;4.95;;;436.00;1203.20;;;;;;4998277;28;20335;-81
2021/03/30 10:28:59;;;;;;;58.80;13.50;;;435.90;1203.20;;;;;;5012756;28;20046;-82
2021/03/30 10:34:29;;;;;;;13.15;9.00;;;435.80;1152.00;;;;;;5008199;28;20465;-82
2021/03/30 10:37:05;;;;;;;20.10;8.95;;;436.10;1177.60;;;;;;4995963;28;20050;-85
2021/03/30 10:39:32;;;;;;;19.83;11.43;;;435.60;1152.00;;;;;;4995141;28;20046;-83
2021/03/30 10:42:15;;;;;;;12.13;8.60;;;435.40;1177.60;;;;;;4994160;28;20029;-82
2021/03/30 10:44:56;;;;;;;19.95;6.95;;;410.50;1152.00;;;;;;5010467;28;20112;-79
2021/03/30 10:47:26;;;;;;;29.95;17.88;;;435.40;1152.00;;;;;;4995136;28;20032;-78
2021/03/30 10:49:56;;;;;;;22.38;14.50;;;435.80;1152.00;;;;;;5009869;28;20033;-83
2021/03/30 10:52:26;;;;;;;21.13;14.18;;;460.80;1152.00;;;;;;4993072;28;20049;-81
2021/03/30 10:54:56;;;;;;;9.05;5.68;;;461.20;1100.80;;;;;;5009414;28;20378;-83
2021/03/30 10:57:34;;;;;;;14.38;8.70;;;461.50;1100.80;;;;;;5014123;28;20026;-84
2021/03/30 11:00:03;;;;;;;9.02;4.20;;;461.70;1049.60;;;;;;4994946;28;20030;-83
2021/03/30 11:02:29;;;;;;;10.32;6.45;;;486.80;1049.60;;;;;;4991725;28;20029;-80
2021/03/30 11:04:55;;;;;;;13.40;7.32;;;487.00;1049.60;;;;;;4996703;28;20030;-80
2021/03/30 11:07:21;;;;;;;16.83;8.43;;;487.20;1024.00;;;;;;5010623;28;20050;-81
2021/03/30 11:09:47;;;;;;;10.40;5.63;;;512.00;1024.00;;;;;;4994597;28;20041;-81
2021/03/30 11:12:13;;;;;;;12.10;7.35;;;512.40;998.40;;;;;;5014412;28;20097;-82
2021/03/30 11:14:39;;;;;;;14.57;7.75;;;512.70;972.80;;;;;;4998903;28;20039;-81
2021/03/30 11:17:05;;;;;;;40.03;32.88;;;537.60;1024.00;;;;;;4984189;28;20116;-81
2021/03/30 11:19:32;;;;;;;9.50;5.53;;;512.80;947.20;;;;;;4990214;28;20060;-82
2021/03/30 11:21:58;;;;;;;11.40;5.25;;;537.60;972.80;;;;;;4988679;28;20026;-82
2021/03/30 11:24:28;;;;;;;7.35;4.47;;;537.70;972.80;;;;;;4995459;28;20354;-81
2021/03/30 11:26:57;;;;;;;11.48;6.78;;;537.70;972.80;;;;;;4995788;28;20034;-84
2021/03/30 11:32:07;;;;;;;15.23;11.38;;;512.70;998.40;;;;;;5006820;28;20455;-80
2021/03/30 11:39:37;;;;;;;21.05;11.77;;;538.00;998.40;;;;;;5013441;28;20030;-80
2021/03/30 11:42:06;;;;;;;22.27;12.30;;;538.20;947.20;;;;;;5013497;28;20032;-83
2021/03/30 11:44:33;;;;;;;13.55;7.53;;;538.30;972.80;;;;;;4992073;28;20029;-83
2021/03/30 11:46:59;;;;;;;15.50;8.38;;;538.20;972.80;;;;;;4996423;28;20022;-81
2021/03/30 11:49:30;;;;;;;13.77;7.32;;;538.40;972.80;;;;;;4995821;28;20125;-79
2021/03/30 11:51:56;;;;;;;18.02;9.32;;;538.50;947.20;;;;;;4994989;28;20381;-81
2021/03/30 11:54:22;;;;;;;23.45;11.98;;;563.30;972.80;;;;;;4996796;28;20045;-77
2021/03/30 11:56:50;;;;;;;18.10;8.15;;;538.50;947.20;;;;;;5006306;28;20057;-78
2021/03/30 11:59:17;;;;;;;10.55;5.90;;;538.30;972.80;;;;;;4993942;28;20033;-82
2021/03/30 12:01:42;;;;;;;10.82;6.22;;;563.20;972.80;;;;;;4998177;28;20041;-79
2021/03/30 12:04:08;;;;;;;10.63;5.80;;;538.50;947.20;;;;;;4993715;28;20030;-78
2021/03/30 12:06:34;;;;;;;12.32;8.50;;;563.40;947.20;;;;;;4994704;28;20050;-78
2021/03/30 12:09:00;;;;;;;11.23;7.40;;;563.70;972.80;;;;;;4995465;28;20037;-79
2021/03/30 12:11:28;;;;;;;66.55;8.38;;;564.00;972.80;;;;;;5013305;28;20080;-80
2021/03/30 12:13:54;;;;;;;16.05;8.82;;;563.80;947.20;;;;;;4998839;28;20033;-84
2021/03/30 12:16:20;;;;;;;15.23;7.78;;;563.30;947.20;;;;;;4999557;28;20092;-80
2021/03/30 12:18:46;;;;;;;13.07;7.50;;;563.30;947.20;;;;;;5017336;28;20516;-79
2021/03/30 12:21:12;;;;;;;15.52;9.57;;;563.80;972.80;;;;;;4999762;28;20025;-81
2021/03/30 12:23:38;;;;;;;13.27;9.10;;;563.90;947.20;;;;;;4998826;28;20049;-84
2021/03/30 12:26:05;;;;;;;17.88;10.80;;;563.90;947.20;;;;;;5000098;28;20354;-80
2021/03/30 12:28:31;;;;;;;10.73;7.35;;;564.10;947.20;;;;;;4999849;28;20385;-78
2021/03/30 12:30:57;;;;;;;11.93;6.82;;;563.70;947.20;;;;;;5000315;28;20026;-80
2021/03/30 12:33:23;;;;;;;9.57;6.55;;;563.40;972.80;;;;;;5016248;28;20168;-77
2021/03/30 12:35:49;;;;;;;11.38;5.70;;;538.10;972.80;;;;;;4999480;28;20107;-78
2021/03/30 12:38:15;;;;;;;14.45;7.50;;;537.90;998.40;;;;;;5000006;28;20462;-80
2021/03/30 12:40:41;;;;;;;48.72;37.22;;;538.10;1049.60;;;;;;4999482;28;20079;-83
2021/03/30 12:43:07;;;;;;;15.00;10.25;;;563.40;1024.00;;;;;;4999597;28;20033;-77
2021/03/30 12:45:35;;;;;;;29.75;22.77;;;563.80;998.40;;;;;;5017138;28;20025;-82
2021/03/30 12:48:03;;;;;;;17.40;9.55;;;564.10;972.80;;;;;;5016892;28;20026;-80
2021/03/30 12:50:29;;;;;;;19.00;13.63;;;564.10;947.20;;;;;;5017002;28;20025;-80
2021/03/30 12:52:55;;;;;;;14.70;8.85;;;589.10;972.80;;;;;;4999388;28;20026;-77
2021/03/30 12:55:22;;;;;;;17.38;13.00;;;589.30;947.20;;;;;;4999308;28;20121;-80
2021/03/30 12:57:48;;;;;;;10.70;7.10;;;589.20;947.20;;;;;;5016883;28;20025;-79
2021/03/30 13:00:15;;;;;;;23.52;13.90;;;589.20;947.20;;;;;;4997895;28;20029;-79
2021/03/30 13:02:41;;;;;;;17.85;14.85;;;588.80;947.20;;;;;;4999063;28;20083;-77
2021/03/30 13:05:08;;;;;;;15.82;9.88;;;589.30;972.80;;;;;;5015986;28;20505;-81
2021/03/30 13:07:34;;;;;;;12.43;7.40;;;589.20;947.20;;;;;;4996650;28;20046;-79
2021/03/30 13:09:59;;;;;;;19.20;8.77;;;589.10;921.60;;;;;;5017516;28;20480;-78
2021/03/30 13:12:25;;;;;;;13.48;7.47;;;589.20;947.20;;;;;;4998031;28;20119;-77
2021/03/30 13:14:52;;;;;;;9.02;5.47;;;589.30;921.60;;;;;;5015013;28;20026;-77
2021/03/30 13:17:17;;;;;;;12.95;8.13;;;589.00;947.20;;;;;;4998267;28;20026;-78
2021/03/30 13:19:43;;;;;;;14.88;8.65;;;564.10;947.20;;;;;;4997966;28;20030;-78
2021/03/30 13:22:10;;;;;;;13.10;8.60;;;564.10;947.20;;;;;;4998437;28;20033;-77
2021/03/30 13:24:38;;;;;;;18.85;11.50;;;588.90;947.20;;;;;;5016099;28;20430;-80
2021/03/30 13:27:14;;;;;;;15.10;7.78;;;589.00;947.20;;;;;;5001088;28;20029;-80
2021/03/30 13:29:41;;;;;;;16.13;10.95;;;588.80;972.80;;;;;;4999459;28;20057;-81
2021/03/30 13:32:11;;;;;;;13.93;9.43;;;563.80;972.80;;;;;;4994303;28;20387;-80
2021/03/30 13:34:38;;;;;;;20.67;12.02;;;563.20;998.40;;;;;;4995579;28;20077;-78
2021/03/30 13:37:05;;;;;;;20.25;12.43;;;537.80;972.80;;;;;;4981118;28;20032;-75
2021/03/30 13:39:32;;;;;;;17.95;9.82;;;512.80;998.40;;;;;;5015455;28;20041;-76
2021/03/30 13:41:58;;;;;;;13.10;6.95;;;512.40;1024.00;;;;;;4992351;28;20034;-75
2021/03/30 13:44:25;;;;;;;13.38;9.15;;;512.60;1049.60;;;;;;4995022;28;20076;-82
2021/03/30 13:46:57;;;;;;;17.88;12.35;;;512.30;1049.60;;;;;;4995935;28;20469;-78
2021/03/30 13:49:27;;;;;;;21.42;11.68;;;512.80;1024.00;;;;;;4992135;28;20037;-81
2021/03/30 13:51:53;;;;;;;25.17;13.35;;;512.60;1024.00;;;;;;4993652;28;20070;-75
2021/03/30 13:54:21;;;;;;;27.00;14.77;;;512.10;1049.60;;;;;;4991719;28;20033;-81
2021/03/30 13:56:47;;;;;;;20.70;12.18;;;487.10;1075.20;;;;;;5011137;28;20080;-79
2021/03/30 13:59:14;;;;;;;28.98;14.77;;;512.40;1049.60;;;;;;4992585;28;20032;-76
2021/03/30 14:01:40;;;;;;;21.33;11.23;;;537.70;1049.60;;;;;;5011349;28;20028;-79
2021/03/30 14:04:07;;;;;;;16.27;10.48;;;537.90;1024.00;;;;;;4990902;28;20054;-76
2021/03/30 14:06:33;;;;;;;16.52;9.00;;;537.70;1049.60;;;;;;5011261;28;20414;-78
2021/03/30 14:08:59;;;;;;;14.10;7.93;;;512.60;1049.60;;;;;;4996341;28;20053;-76
2021/03/30 14:11:33;;;;;;;16.95;9.57;;;512.80;1075.20;;;;;;4992165;28;20030;-77
2021/03/30 14:14:08;;;;;;;18.33;11.40;;;537.60;1075.20;;;;;;4992237;28;20505;-76
2021/03/30 14:16:42;;;;;;;14.40;9.88;;;537.60;1100.80;;;;;;4991927;28;20037;-75